createdAt,value
2022-08-29T00:00:48.090Z,99.99
2022-08-29T00:01:48.613Z,99.99
2022-08-29T00:02:48.301Z,99.99
2022-08-29T00:03:48.273Z,99.99
2022-08-29T00:04:48.162Z,99.99
2022-08-29T00:05:50.309Z,99.99
2022-08-29T00:06:48.197Z,99.99
2022-08-29T00:07:48.210Z,99.99
2022-08-29T00:08:48.401Z,99.99
2022-08-29T00:09:48.314Z,99.99
2022-08-29T00:10:48.179Z,99.99
2022-08-29T00:11:48.209Z,99.99
2022-08-29T00:12:48.475Z,99.99
2022-08-29T00:13:48.237Z,99.99
2022-08-29T00:14:48.302Z,99.99
2022-08-29T00:15:48.272Z,99.99
2022-08-29T00:16:48.437Z,99.99
2022-08-29T00:17:48.109Z,99.99
2022-08-29T00:18:48.297Z,99.99
2022-08-29T00:19:48.143Z,99.99
2022-08-29T00:20:48.101Z,99.99
2022-08-29T00:21:48.289Z,99.99
2022-08-29T00:22:48.094Z,99.99
2022-08-29T00:23:48.057Z,99.99
2022-08-29T00:24:48.240Z,99.99
2022-08-29T00:25:48.128Z,99.99
2022-08-29T00:26:48.081Z,99.99
2022-08-29T00:27:49.620Z,99.99
2022-08-29T00:28:48.288Z,99.99
2022-08-29T00:29:48.269Z,99.99
2022-08-29T00:30:48.059Z,99.99
2022-08-29T00:31:48.082Z,99.99
2022-08-29T00:32:48.232Z,99.99
2022-08-29T00:33:48.158Z,99.99
2022-08-29T00:34:48.034Z,99.99
2022-08-29T00:35:48.192Z,99.99
2022-08-29T00:36:49.350Z,99.99
2022-08-29T00:37:48.027Z,99.99
2022-08-29T00:38:47.986Z,99.99
2022-08-29T00:39:47.953Z,99.99
2022-08-29T00:40:51.288Z,99.99
2022-08-29T00:41:48.015Z,99.99
2022-08-29T00:42:48.549Z,99.99
2022-08-29T00:43:48.081Z,99.99
2022-08-29T00:44:48.115Z,99.99
2022-08-29T00:45:48.788Z,99.99
2022-08-29T00:46:48.042Z,99.99
2022-08-29T00:47:47.935Z,99.99
2022-08-29T00:48:47.959Z,99.99
2022-08-29T00:49:48.044Z,99.99
2022-08-29T00:50:48.001Z,99.99
2022-08-29T00:51:48.019Z,99.99
2022-08-29T00:52:48.062Z,99.99
2022-08-29T00:53:47.942Z,99.99
2022-08-29T00:54:47.982Z,99.99
2022-08-29T00:55:50.262Z,99.99
2022-08-29T00:56:47.996Z,99.99
2022-08-29T00:57:48.141Z,99.99
2022-08-29T00:58:47.853Z,99.99
2022-08-29T00:59:48.151Z,99.99
2022-08-29T01:00:47.919Z,99.99
2022-08-29T01:01:47.938Z,99.99
2022-08-29T01:02:47.965Z,99.99
2022-08-29T01:03:47.926Z,99.99
2022-08-29T01:04:48.089Z,99.99
2022-08-29T01:05:47.773Z,99.99
2022-08-29T01:06:48.212Z,99.99
2022-08-29T01:07:47.749Z,99.99
2022-08-29T01:08:47.811Z,99.99
2022-08-29T01:09:48.003Z,99.99
2022-08-29T01:10:47.820Z,99.99
2022-08-29T01:11:47.775Z,99.99
2022-08-29T01:12:47.881Z,99.99
2022-08-29T01:13:47.778Z,99.99
2022-08-29T01:14:47.981Z,99.99
2022-08-29T01:15:47.867Z,99.99
2022-08-29T01:16:47.924Z,99.99
2022-08-29T01:17:47.763Z,99.99
2022-08-29T01:18:47.910Z,99.99
2022-08-29T01:19:47.823Z,99.99
2022-08-29T01:20:47.700Z,99.99
2022-08-29T01:21:47.754Z,99.99
2022-08-29T01:22:47.804Z,99.99
2022-08-29T01:23:48.002Z,99.99
2022-08-29T01:24:47.553Z,99.99
2022-08-29T01:25:47.822Z,99.99
2022-08-29T01:26:47.822Z,99.99
2022-08-29T01:27:47.644Z,99.99
2022-08-29T01:28:47.843Z,99.99
2022-08-29T01:29:47.934Z,99.99
2022-08-29T01:30:47.629Z,99.99
2022-08-29T01:31:56.906Z,99.99
2022-08-29T01:32:47.602Z,99.99
2022-08-29T01:33:47.634Z,99.99
2022-08-29T01:34:47.874Z,99.99
2022-08-29T01:35:47.599Z,99.99
2022-08-29T01:36:47.689Z,99.99
2022-08-29T01:37:47.854Z,99.99
2022-08-29T01:38:47.880Z,99.99
2022-08-29T01:39:47.816Z,99.99
2022-08-29T01:40:47.710Z,99.99
2022-08-29T01:41:47.717Z,99.99
2022-08-29T01:42:47.578Z,99.99
2022-08-29T01:43:47.705Z,99.99
2022-08-29T01:44:47.544Z,99.99
2022-08-29T01:45:47.761Z,99.99
2022-08-29T01:46:47.601Z,99.99
2022-08-29T01:47:47.577Z,99.99
2022-08-29T01:48:47.494Z,99.99
2022-08-29T01:49:47.783Z,99.99
2022-08-29T01:50:47.659Z,99.99
2022-08-29T01:51:47.542Z,99.99
2022-08-29T01:52:47.400Z,99.99
2022-08-29T01:53:47.466Z,99.99
2022-08-29T01:54:47.430Z,99.99
2022-08-29T01:55:47.398Z,99.99
2022-08-29T01:56:47.448Z,99.99
2022-08-29T01:57:47.497Z,99.99
2022-08-29T01:58:47.517Z,99.99
2022-08-29T01:59:47.711Z,99.99
2022-08-29T02:00:47.430Z,99.99
2022-08-29T02:01:47.364Z,99.99
2022-08-29T02:02:47.389Z,99.99
2022-08-29T02:03:47.707Z,99.99
2022-08-29T02:04:47.453Z,99.99
2022-08-29T02:05:47.327Z,99.99
2022-08-29T02:06:47.361Z,99.99
2022-08-29T02:07:47.602Z,99.99
2022-08-29T02:08:47.291Z,99.99
2022-08-29T02:09:47.508Z,99.99
2022-08-29T02:10:47.528Z,99.99
2022-08-29T02:11:47.296Z,99.99
2022-08-29T02:12:47.287Z,99.99
2022-08-29T02:13:47.168Z,99.99
2022-08-29T02:14:47.251Z,99.99
2022-08-29T02:15:47.071Z,99.99
2022-08-29T02:16:47.675Z,99.99
2022-08-29T02:17:48.492Z,99.99
2022-08-29T02:18:47.277Z,99.99
2022-08-29T02:19:47.602Z,99.99
2022-08-29T02:20:47.320Z,99.99
2022-08-29T02:21:47.514Z,99.99
2022-08-29T02:22:47.274Z,99.99
2022-08-29T02:23:47.281Z,99.99
2022-08-29T02:24:47.326Z,99.99
2022-08-29T02:25:47.167Z,99.99
2022-08-29T02:26:47.320Z,99.99
2022-08-29T02:27:47.187Z,99.99
2022-08-29T02:28:47.191Z,99.99
2022-08-29T02:29:47.562Z,99.99
2022-08-29T02:30:47.231Z,99.99
2022-08-29T02:31:47.251Z,99.99
2022-08-29T02:32:47.171Z,99.99
2022-08-29T02:33:47.241Z,99.99
2022-08-29T02:34:47.782Z,99.99
2022-08-29T02:35:47.063Z,99.99
2022-08-29T02:36:49.102Z,99.99
2022-08-29T02:37:47.254Z,99.99
2022-08-29T02:38:46.984Z,99.99
2022-08-29T02:39:47.198Z,99.99
2022-08-29T02:40:47.234Z,99.99
2022-08-29T02:41:47.337Z,99.99
2022-08-29T02:42:47.220Z,99.99
2022-08-29T02:43:47.167Z,99.99
2022-08-29T02:44:47.207Z,99.99
2022-08-29T02:45:47.158Z,99.99
2022-08-29T02:46:47.474Z,99.99
2022-08-29T02:47:47.147Z,99.99
2022-08-29T02:48:49.290Z,99.99
2022-08-29T02:49:47.179Z,99.99
2022-08-29T02:50:47.030Z,99.99
2022-08-29T02:51:47.124Z,99.99
2022-08-29T02:52:47.233Z,99.99
2022-08-29T02:53:46.974Z,99.99
2022-08-29T02:54:47.122Z,99.99
2022-08-29T02:55:47.067Z,99.99
2022-08-29T02:56:46.998Z,99.99
2022-08-29T02:57:47.129Z,99.99
2022-08-29T02:58:46.734Z,99.99
2022-08-29T02:59:46.724Z,99.99
2022-08-29T03:00:46.781Z,99.99
2022-08-29T03:01:46.769Z,99.99
2022-08-29T03:02:46.692Z,99.99
2022-08-29T03:03:46.696Z,99.99
2022-08-29T03:04:46.866Z,99.99
2022-08-29T03:05:46.698Z,99.99
2022-08-29T03:06:46.886Z,99.99
2022-08-29T03:07:50.725Z,99.99
2022-08-29T03:08:46.643Z,99.99
2022-08-29T03:09:46.631Z,99.99
2022-08-29T03:10:46.624Z,99.99
2022-08-29T03:11:46.635Z,99.99
2022-08-29T03:12:46.616Z,99.99
2022-08-29T03:13:46.610Z,99.99
2022-08-29T03:14:46.591Z,99.99
2022-08-29T03:15:46.654Z,99.99
2022-08-29T03:16:46.578Z,99.99
2022-08-29T03:17:46.565Z,99.99
2022-08-29T03:18:46.565Z,99.99
2022-08-29T03:19:46.560Z,99.99
2022-08-29T03:20:46.557Z,99.99
2022-08-29T03:21:46.543Z,99.99
2022-08-29T03:22:46.537Z,99.99
2022-08-29T03:23:46.539Z,99.99
2022-08-29T03:24:46.568Z,99.99
2022-08-29T03:25:46.526Z,99.99
2022-08-29T03:26:46.719Z,99.99
2022-08-29T03:27:46.488Z,99.99
2022-08-29T03:28:46.499Z,99.99
2022-08-29T03:29:46.479Z,99.99
2022-08-29T03:30:46.470Z,99.99
2022-08-29T03:31:46.539Z,99.99
2022-08-29T03:32:46.456Z,99.99
2022-08-29T03:33:46.471Z,99.99
2022-08-29T03:34:46.440Z,99.99
2022-08-29T03:35:46.443Z,99.99
2022-08-29T03:36:46.428Z,99.99
2022-08-29T03:37:46.421Z,99.99
2022-08-29T03:38:46.634Z,99.99
2022-08-29T03:39:46.417Z,99.99
2022-08-29T03:40:46.423Z,99.99
2022-08-29T03:41:46.602Z,99.99
2022-08-29T03:42:46.376Z,99.99
2022-08-29T03:43:46.375Z,99.99
2022-08-29T03:44:46.377Z,99.99
2022-08-29T03:45:46.361Z,99.99
2022-08-29T03:46:46.392Z,99.99
2022-08-29T03:47:46.340Z,99.99
2022-08-29T03:48:46.345Z,99.99
2022-08-29T03:49:46.539Z,99.99
2022-08-29T03:50:46.335Z,99.99
2022-08-29T03:51:46.318Z,99.99
2022-08-29T03:52:46.296Z,99.99
2022-08-29T03:53:46.314Z,99.99
2022-08-29T03:54:46.294Z,99.99
2022-08-29T03:55:46.288Z,99.99
2022-08-29T03:56:46.270Z,99.99
2022-08-29T03:57:46.272Z,99.99
2022-08-29T03:58:50.417Z,99.99
2022-08-29T03:59:46.238Z,99.99
2022-08-29T04:00:46.243Z,99.99
2022-08-29T04:01:46.286Z,99.99
2022-08-29T04:02:46.297Z,99.99
2022-08-29T04:03:46.221Z,99.99
2022-08-29T04:04:46.218Z,99.99
2022-08-29T04:05:46.204Z,99.99
2022-08-29T04:06:46.197Z,99.99
2022-08-29T04:07:46.191Z,99.99
2022-08-29T04:08:46.182Z,99.99
2022-08-29T04:09:46.169Z,99.99
2022-08-29T04:10:46.179Z,99.99
2022-08-29T04:11:46.147Z,99.99
2022-08-29T04:12:46.151Z,99.99
2022-08-29T04:13:46.139Z,99.99
2022-08-29T04:14:46.131Z,99.99
2022-08-29T04:15:46.230Z,99.99
2022-08-29T04:16:46.121Z,99.99
2022-08-29T04:17:53.358Z,99.99
2022-08-29T04:18:46.109Z,99.99
2022-08-29T04:19:46.086Z,99.99
2022-08-29T04:20:46.081Z,99.99
2022-08-29T04:21:46.072Z,99.99
2022-08-29T04:22:46.070Z,99.99
2022-08-29T04:23:46.054Z,99.99
2022-08-29T04:24:46.061Z,99.99
2022-08-29T04:25:46.043Z,99.99
2022-08-29T04:26:46.062Z,99.99
2022-08-29T04:27:46.022Z,99.99
2022-08-29T04:28:46.022Z,99.99
2022-08-29T04:29:46.008Z,99.99
2022-08-29T04:30:50.384Z,99.99
2022-08-29T04:31:46.022Z,99.99
2022-08-29T04:32:45.990Z,99.99
2022-08-29T04:33:46.008Z,99.99
2022-08-29T04:34:45.966Z,99.99
2022-08-29T04:35:45.986Z,99.99
2022-08-29T04:36:45.973Z,99.99
2022-08-29T04:37:45.975Z,99.99
2022-08-29T04:38:45.941Z,99.99
2022-08-29T04:39:45.928Z,99.99
2022-08-29T04:40:45.945Z,99.99
2022-08-29T04:41:45.921Z,99.99
2022-08-29T04:42:45.904Z,99.99
2022-08-29T04:43:45.901Z,99.99
2022-08-29T04:44:45.897Z,99.99
2022-08-29T04:45:45.882Z,99.99
2022-08-29T04:46:45.909Z,99.99
2022-08-29T04:47:45.993Z,99.99
2022-08-29T04:48:45.863Z,99.99
2022-08-29T04:49:45.858Z,99.99
2022-08-29T04:50:46.062Z,99.99
2022-08-29T04:51:46.121Z,99.99
2022-08-29T04:52:45.893Z,99.99
2022-08-29T04:53:46.062Z,99.99
2022-08-29T04:54:45.876Z,99.99
2022-08-29T04:55:45.969Z,99.99
2022-08-29T04:56:47.363Z,99.99
2022-08-29T04:57:45.970Z,99.99
2022-08-29T04:58:45.990Z,99.99
2022-08-29T04:59:45.788Z,99.99
2022-08-29T05:00:45.828Z,99.99
2022-08-29T05:01:45.851Z,99.99
2022-08-29T05:02:46.041Z,99.99
2022-08-29T05:03:46.065Z,99.99
2022-08-29T05:04:45.999Z,99.99
2022-08-29T05:05:45.820Z,99.99
2022-08-29T05:06:45.946Z,99.99
2022-08-29T05:07:45.901Z,99.99
2022-08-29T05:08:45.880Z,99.99
2022-08-29T05:09:45.803Z,99.99
2022-08-29T05:10:45.846Z,99.99
2022-08-29T05:11:45.813Z,99.99
2022-08-29T05:12:45.779Z,99.99
2022-08-29T05:13:45.906Z,99.99
2022-08-29T05:14:45.843Z,99.99
2022-08-29T05:15:46.021Z,99.99
2022-08-29T05:16:45.859Z,99.99
2022-08-29T05:17:45.659Z,99.99
2022-08-29T05:18:45.694Z,99.99
2022-08-29T05:19:45.652Z,99.99
2022-08-29T05:20:45.715Z,99.99
2022-08-29T05:21:45.721Z,99.99
2022-08-29T05:22:45.729Z,99.99
2022-08-29T05:23:45.780Z,99.99
2022-08-29T05:24:45.707Z,99.99
2022-08-29T05:25:45.801Z,99.99
2022-08-29T05:26:45.678Z,99.99
2022-08-29T05:27:45.855Z,99.99
2022-08-29T05:28:45.652Z,99.99
2022-08-29T05:29:45.575Z,99.99
2022-08-29T05:30:45.888Z,99.99
2022-08-29T05:31:45.866Z,99.99
2022-08-29T05:32:45.711Z,99.99
2022-08-29T05:33:45.738Z,99.99
2022-08-29T05:34:45.706Z,99.99
2022-08-29T05:35:45.663Z,99.99
2022-08-29T05:36:45.689Z,99.99
2022-08-29T05:37:45.649Z,99.99
2022-08-29T05:38:45.758Z,99.99
2022-08-29T05:39:45.728Z,99.99
2022-08-29T05:40:45.593Z,99.99
2022-08-29T05:41:45.627Z,99.99
2022-08-29T05:42:45.581Z,99.99
2022-08-29T05:43:45.714Z,99.99
2022-08-29T05:44:45.672Z,99.99
2022-08-29T05:45:45.519Z,99.99
2022-08-29T05:46:45.656Z,99.99
2022-08-29T05:47:45.460Z,99.99
2022-08-29T05:48:45.621Z,99.99
2022-08-29T05:49:45.463Z,99.99
2022-08-29T05:50:45.604Z,99.99
2022-08-29T05:51:45.508Z,99.99
2022-08-29T05:52:45.572Z,99.99
2022-08-29T05:53:45.558Z,99.99
2022-08-29T05:54:45.496Z,99.99
2022-08-29T05:55:45.505Z,99.99
2022-08-29T05:56:45.663Z,99.99
2022-08-29T05:57:45.526Z,99.99
2022-08-29T05:58:45.447Z,99.99
2022-08-29T05:59:45.452Z,99.99
2022-08-29T06:00:45.564Z,99.99
2022-08-29T06:01:45.356Z,99.99
2022-08-29T06:02:45.725Z,99.99
2022-08-29T06:03:46.184Z,99.99
2022-08-29T06:04:45.530Z,99.99
2022-08-29T06:05:45.595Z,99.99
2022-08-29T06:06:45.582Z,99.99
2022-08-29T06:07:45.492Z,99.99
2022-08-29T06:08:45.349Z,99.99
2022-08-29T06:09:45.558Z,99.99
2022-08-29T06:10:45.412Z,99.99
2022-08-29T06:11:45.447Z,99.99
2022-08-29T06:12:45.356Z,99.99
2022-08-29T06:13:46.109Z,99.99
2022-08-29T06:14:50.292Z,99.99
2022-08-29T06:15:45.461Z,99.99
2022-08-29T06:16:45.338Z,99.99
2022-08-29T06:17:45.252Z,99.99
2022-08-29T06:18:45.541Z,99.99
2022-08-29T06:19:45.311Z,99.99
2022-08-29T06:20:45.455Z,99.99
2022-08-29T06:21:45.433Z,99.99
2022-08-29T06:22:45.308Z,99.99
2022-08-29T06:23:45.353Z,99.99
2022-08-29T06:24:45.356Z,99.99
2022-08-29T06:25:45.341Z,99.99
2022-08-29T06:26:45.409Z,99.99
2022-08-29T06:27:45.337Z,99.99
2022-08-29T06:28:45.349Z,99.99
2022-08-29T06:29:45.402Z,99.99
2022-08-29T06:30:45.404Z,99.99
2022-08-29T06:31:45.536Z,99.99
2022-08-29T06:32:45.282Z,99.99
2022-08-29T06:33:45.405Z,99.99
2022-08-29T06:34:45.237Z,99.99
2022-08-29T06:35:45.272Z,99.99
2022-08-29T06:36:45.315Z,99.99
2022-08-29T06:37:45.315Z,99.99
2022-08-29T06:38:45.248Z,99.99
2022-08-29T06:39:45.208Z,99.99
2022-08-29T06:40:45.255Z,99.99
2022-08-29T06:41:45.147Z,99.99
2022-08-29T06:42:45.213Z,99.99
2022-08-29T06:43:45.187Z,99.99
2022-08-29T06:44:45.212Z,99.99
2022-08-29T06:45:45.217Z,99.99
2022-08-29T06:46:45.168Z,99.99
2022-08-29T06:47:45.373Z,99.99
2022-08-29T06:48:45.178Z,99.99
2022-08-29T06:49:45.257Z,99.99
2022-08-29T06:50:45.763Z,99.99
2022-08-29T06:51:45.112Z,99.99
2022-08-29T06:52:47.121Z,99.99
2022-08-29T06:53:45.170Z,99.99
2022-08-29T06:54:45.125Z,99.99
2022-08-29T06:55:45.089Z,99.99
2022-08-29T06:56:45.204Z,99.99
2022-08-29T06:57:45.229Z,99.99
2022-08-29T06:58:45.121Z,99.99
2022-08-29T06:59:45.263Z,99.99
2022-08-29T07:00:49.548Z,99.99
2022-08-29T07:01:45.282Z,99.99
2022-08-29T07:02:45.561Z,99.99
2022-08-29T07:03:45.106Z,99.99
2022-08-29T07:04:45.042Z,99.99
2022-08-29T07:05:45.020Z,99.99
2022-08-29T07:06:45.157Z,99.99
2022-08-29T07:07:45.451Z,99.99
2022-08-29T07:08:55.062Z,99.99
2022-08-29T07:09:45.080Z,99.99
2022-08-29T07:10:45.054Z,99.99
2022-08-29T07:11:45.048Z,99.99
2022-08-29T07:12:45.081Z,99.99
2022-08-29T07:13:45.170Z,99.99
2022-08-29T07:14:45.223Z,99.99
2022-08-29T07:15:45.178Z,99.99
2022-08-29T07:16:45.061Z,99.99
2022-08-29T07:17:45.071Z,99.99
2022-08-29T07:18:44.920Z,99.99
2022-08-29T07:19:45.020Z,99.99
2022-08-29T07:20:45.176Z,99.99
2022-08-29T07:21:44.993Z,99.99
2022-08-29T07:22:44.991Z,99.99
2022-08-29T07:23:45.011Z,99.99
2022-08-29T07:24:45.058Z,97.04
2022-08-29T07:25:44.994Z,96.17
2022-08-29T07:26:44.980Z,97.91
2022-08-29T07:27:44.965Z,99.63
2022-08-29T07:28:46.193Z,93.73
2022-08-29T07:29:50.062Z,92.47
2022-08-29T07:30:45.086Z,91.52
2022-08-29T07:31:45.271Z,89.40
2022-08-29T07:32:44.912Z,93.73
2022-08-29T07:33:44.957Z,92.43
2022-08-29T07:34:44.912Z,95.60
2022-08-29T07:35:44.877Z,95.07
2022-08-29T07:36:44.956Z,91.60
2022-08-29T07:37:50.225Z,92.47
2022-08-29T07:38:45.107Z,90.21
2022-08-29T07:39:44.893Z,88.67
2022-08-29T07:40:44.970Z,92.08
2022-08-29T07:41:44.812Z,91.89
2022-08-29T07:42:44.995Z,88.91
2022-08-29T07:43:45.228Z,87.95
2022-08-29T07:44:45.123Z,88.62
2022-08-29T07:45:45.155Z,87.95
2022-08-29T07:46:45.050Z,87.08
2022-08-29T07:47:44.902Z,85.78
2022-08-29T07:48:44.982Z,85.30
2022-08-29T07:49:44.890Z,86.74
2022-08-29T07:50:44.881Z,86.02
2022-08-29T07:51:45.046Z,85.64
2022-08-29T07:52:44.873Z,86.89
2022-08-29T07:53:44.795Z,85.16
2022-08-29T07:54:44.979Z,85.16
2022-08-29T07:55:44.863Z,81.06
2022-08-29T07:56:45.002Z,80.73
2022-08-29T07:57:44.964Z,81.40
2022-08-29T07:58:44.953Z,85.30
2022-08-29T07:59:44.796Z,85.72
2022-08-29T08:00:45.105Z,83.74
2022-08-29T08:01:44.955Z,81.68
2022-08-29T08:02:44.951Z,80.91
2022-08-29T08:03:44.894Z,80.23
2022-08-29T08:04:44.961Z,80.04
2022-08-29T08:05:45.138Z,81.39
2022-08-29T08:06:44.989Z,79.41
2022-08-29T08:07:44.860Z,78.73
2022-08-29T08:08:44.857Z,81.24
2022-08-29T08:09:44.905Z,83.25
2022-08-29T08:10:47.876Z,78.46
2022-08-29T08:11:44.860Z,75.62
2022-08-29T08:12:44.795Z,77.33
2022-08-29T08:13:44.762Z,77.75
2022-08-29T08:14:45.214Z,78.42
2022-08-29T08:15:44.956Z,78.66
2022-08-29T08:16:45.006Z,76.92
2022-08-29T08:17:45.011Z,77.53
2022-08-29T08:18:44.834Z,76.28
2022-08-29T08:19:44.763Z,77.48
2022-08-29T08:20:44.825Z,75.97
2022-08-29T08:21:49.833Z,75.78
2022-08-29T08:22:44.851Z,71.23
2022-08-29T08:23:44.761Z,72.16
2022-08-29T08:24:44.855Z,73.19
2022-08-29T08:25:44.775Z,77.69
2022-08-29T08:26:44.784Z,75.95
2022-08-29T08:27:44.769Z,79.00
2022-08-29T08:28:44.914Z,77.07
2022-08-29T08:29:44.911Z,75.85
2022-08-29T08:30:45.093Z,74.89
2022-08-29T08:31:44.823Z,74.79
2022-08-29T08:32:47.428Z,74.02
2022-08-29T08:33:45.152Z,75.34
2022-08-29T08:34:45.089Z,77.59
2022-08-29T08:35:47.000Z,78.75
2022-08-29T08:36:44.934Z,78.46
2022-08-29T08:37:44.890Z,73.96
2022-08-29T08:38:45.254Z,76.61
2022-08-29T08:39:45.158Z,72.97
2022-08-29T08:40:44.909Z,73.78
2022-08-29T08:41:45.000Z,71.01
2022-08-29T08:42:44.896Z,71.72
2022-08-29T08:43:44.773Z,69.69
2022-08-29T08:44:45.084Z,70.08
2022-08-29T08:45:45.002Z,67.72
2022-08-29T08:46:44.839Z,67.24
2022-08-29T08:47:44.898Z,64.89
2022-08-29T08:48:44.776Z,67.76
2022-08-29T08:49:44.927Z,68.33
2022-08-29T08:50:44.919Z,67.76
2022-08-29T08:51:44.812Z,68.95
2022-08-29T08:52:44.792Z,67.24
2022-08-29T08:53:44.886Z,67.79
2022-08-29T08:54:44.816Z,70.88
2022-08-29T08:55:44.996Z,70.30
2022-08-29T08:56:44.879Z,69.46
2022-08-29T08:57:44.785Z,68.88
2022-08-29T08:58:44.973Z,70.72
2022-08-29T08:59:44.986Z,68.30
2022-08-29T09:00:44.906Z,68.53
2022-08-29T09:01:44.952Z,66.40
2022-08-29T09:02:44.875Z,66.50
2022-08-29T09:03:44.904Z,66.27
2022-08-29T09:04:44.974Z,67.11
2022-08-29T09:05:48.961Z,69.01
2022-08-29T09:06:44.869Z,69.49
2022-08-29T09:07:44.832Z,68.66
2022-08-29T09:08:44.849Z,67.72
2022-08-29T09:09:44.872Z,68.33
2022-08-29T09:10:44.796Z,65.63
2022-08-29T09:11:44.812Z,67.40
2022-08-29T09:12:45.038Z,65.59
2022-08-29T09:13:45.067Z,63.53
2022-08-29T09:14:44.895Z,63.69
2022-08-29T09:15:44.937Z,63.69
2022-08-29T09:16:44.779Z,66.66
2022-08-29T09:17:44.789Z,67.33
2022-08-29T09:18:49.904Z,68.94
2022-08-29T09:19:44.935Z,72.90
2022-08-29T09:20:44.793Z,72.84
2022-08-29T09:21:44.761Z,71.39
2022-08-29T09:22:44.870Z,69.07
2022-08-29T09:23:44.800Z,71.52
2022-08-29T09:24:44.827Z,69.53
2022-08-29T09:25:44.826Z,68.24
2022-08-29T09:26:44.761Z,64.95
2022-08-29T09:27:44.769Z,66.02
2022-08-29T09:28:44.788Z,66.47
2022-08-29T09:29:45.035Z,66.85
2022-08-29T09:30:44.957Z,67.82
2022-08-29T09:31:44.786Z,68.11
2022-08-29T09:32:44.948Z,67.27
2022-08-29T09:33:44.936Z,70.07
2022-08-29T09:35:07.493Z,70.40
2022-08-29T09:35:44.786Z,67.75
2022-08-29T09:36:47.485Z,70.17
2022-08-29T09:37:44.820Z,67.11
2022-08-29T09:38:44.714Z,66.85
2022-08-29T09:39:46.814Z,65.79
2022-08-29T09:40:44.807Z,63.59
2022-08-29T09:41:44.725Z,62.53
2022-08-29T09:42:44.824Z,65.05
2022-08-29T09:43:45.047Z,67.18
2022-08-29T09:44:44.730Z,66.78
2022-08-29T09:45:44.919Z,66.24
2022-08-29T09:46:44.868Z,67.30
2022-08-29T09:47:44.735Z,64.40
2022-08-29T09:48:44.802Z,63.46
2022-08-29T09:49:44.809Z,65.56
2022-08-29T09:50:44.803Z,70.07
2022-08-29T09:51:44.757Z,67.72
2022-08-29T09:52:44.705Z,67.72
2022-08-29T09:53:44.734Z,68.10
2022-08-29T09:54:44.796Z,68.20
2022-08-29T09:55:44.757Z,68.88
2022-08-29T09:56:45.003Z,71.91
2022-08-29T09:57:44.731Z,69.85
2022-08-29T09:58:44.723Z,69.59
2022-08-29T09:59:45.315Z,64.20
2022-08-29T10:00:44.945Z,63.69
2022-08-29T10:01:44.708Z,64.30
2022-08-29T10:02:44.889Z,64.69
2022-08-29T10:03:44.659Z,66.92
2022-08-29T10:04:44.742Z,65.14
2022-08-29T10:05:44.794Z,68.05
2022-08-29T10:06:49.502Z,69.40
2022-08-29T10:07:44.686Z,68.18
2022-08-29T10:08:44.633Z,64.14
2022-08-29T10:09:44.670Z,65.79
2022-08-29T10:10:44.650Z,65.63
2022-08-29T10:11:44.661Z,63.17
2022-08-29T10:12:44.670Z,62.46
2022-08-29T10:13:44.625Z,65.20
2022-08-29T10:14:49.830Z,68.01
2022-08-29T10:15:50.850Z,65.72
2022-08-29T10:16:44.757Z,68.53
2022-08-29T10:17:44.634Z,65.08
2022-08-29T10:18:44.651Z,62.63
2022-08-29T10:19:44.732Z,64.95
2022-08-29T10:20:44.640Z,66.53
2022-08-29T10:21:44.628Z,65.17
2022-08-29T10:22:44.635Z,67.50
2022-08-29T10:23:44.616Z,64.40
2022-08-29T10:24:44.681Z,65.89
2022-08-29T10:25:44.640Z,66.47
2022-08-29T10:26:44.599Z,68.05
2022-08-29T10:27:44.723Z,62.72
2022-08-29T10:28:44.598Z,65.72
2022-08-29T10:29:44.711Z,63.30
2022-08-29T10:30:44.652Z,63.10
2022-08-29T10:31:44.703Z,63.27
2022-08-29T10:32:44.635Z,64.27
2022-08-29T10:33:44.689Z,64.27
2022-08-29T10:34:44.603Z,65.69
2022-08-29T10:35:44.605Z,67.43
2022-08-29T10:36:44.617Z,68.11
2022-08-29T10:37:44.635Z,67.91
2022-08-29T10:38:44.646Z,67.91
2022-08-29T10:39:44.715Z,66.75
2022-08-29T10:40:44.646Z,67.01
2022-08-29T10:41:49.639Z,67.27
2022-08-29T10:42:44.728Z,69.49
2022-08-29T10:43:44.586Z,69.98
2022-08-29T10:44:44.614Z,68.82
2022-08-29T10:45:44.698Z,70.84
2022-08-29T10:46:44.786Z,72.78
2022-08-29T10:47:44.583Z,69.88
2022-08-29T10:48:44.559Z,70.30
2022-08-29T10:49:45.034Z,70.98
2022-08-29T10:50:45.730Z,70.59
2022-08-29T10:51:44.618Z,67.72
2022-08-29T10:52:44.575Z,67.63
2022-08-29T10:53:44.664Z,66.17
2022-08-29T10:54:44.567Z,67.33
2022-08-29T10:55:44.643Z,64.56
2022-08-29T10:56:44.561Z,66.30
2022-08-29T10:57:44.588Z,68.43
2022-08-29T10:58:44.540Z,68.15
2022-08-29T10:59:44.567Z,65.82
2022-08-29T11:00:44.638Z,66.30
2022-08-29T11:01:44.641Z,66.85
2022-08-29T11:02:44.632Z,69.46
2022-08-29T11:03:44.580Z,68.33
2022-08-29T11:04:44.527Z,67.46
2022-08-29T11:05:44.663Z,65.50
2022-08-29T11:06:44.577Z,65.66
2022-08-29T11:07:44.536Z,67.17
2022-08-29T11:08:44.517Z,68.72
2022-08-29T11:09:44.530Z,69.43
2022-08-29T11:10:44.567Z,69.43
2022-08-29T11:11:44.531Z,69.66
2022-08-29T11:12:44.592Z,66.43
2022-08-29T11:13:44.535Z,65.85
2022-08-29T11:14:44.721Z,66.82
2022-08-29T11:15:44.604Z,68.85
2022-08-29T11:16:44.543Z,69.33
2022-08-29T11:17:44.606Z,70.01
2022-08-29T11:18:44.905Z,66.85
2022-08-29T11:19:44.494Z,67.63
2022-08-29T11:20:44.606Z,67.95
2022-08-29T11:21:44.495Z,67.27
2022-08-29T11:22:44.583Z,63.31
2022-08-29T11:23:44.562Z,63.31
2022-08-29T11:24:47.190Z,64.47
2022-08-29T11:25:44.553Z,64.17
2022-08-29T11:26:44.530Z,65.72
2022-08-29T11:27:44.492Z,69.40
2022-08-29T11:29:44.696Z,67.05
2022-08-29T11:30:47.925Z,67.72
2022-08-29T11:31:44.552Z,67.24
2022-08-29T11:32:44.465Z,66.14
2022-08-29T11:33:44.466Z,64.69
2022-08-29T11:34:44.476Z,66.59
2022-08-29T11:35:44.461Z,67.08
2022-08-29T11:36:44.510Z,68.52
2022-08-29T11:37:44.507Z,68.33
2022-08-29T11:38:44.602Z,66.98
2022-08-29T11:39:44.444Z,67.14
2022-08-29T11:40:48.289Z,67.82
2022-08-29T11:41:44.591Z,69.84
2022-08-29T11:42:52.145Z,68.52
2022-08-29T11:43:44.496Z,68.33
2022-08-29T11:44:44.543Z,69.40
2022-08-29T11:45:44.726Z,66.88
2022-08-29T11:46:44.807Z,70.65
2022-08-29T11:47:44.600Z,68.72
2022-08-29T11:48:44.596Z,67.66
2022-08-29T11:49:44.458Z,67.14
2022-08-29T11:50:44.501Z,67.82
2022-08-29T11:51:44.411Z,69.94
2022-08-29T11:52:44.408Z,67.33
2022-08-29T11:53:44.439Z,66.69
2022-08-29T11:54:44.465Z,67.82
2022-08-29T11:55:44.404Z,67.33
2022-08-29T11:56:44.461Z,67.24
2022-08-29T11:57:44.407Z,69.17
2022-08-29T11:58:46.289Z,67.04
2022-08-29T11:59:44.405Z,67.14
2022-08-29T12:00:44.417Z,68.20
2022-08-29T12:01:44.467Z,68.14
2022-08-29T12:02:48.839Z,68.14
2022-08-29T12:03:44.386Z,69.59
2022-08-29T12:04:44.393Z,69.53
2022-08-29T12:05:44.425Z,67.14
2022-08-29T12:06:44.387Z,65.88
2022-08-29T12:07:44.400Z,66.27
2022-08-29T12:08:44.358Z,67.49
2022-08-29T12:09:44.368Z,65.37
2022-08-29T12:10:44.390Z,65.17
2022-08-29T12:11:44.376Z,67.01
2022-08-29T12:12:44.374Z,69.14
2022-08-29T12:13:44.397Z,64.98
2022-08-29T12:14:44.351Z,67.30
2022-08-29T12:15:44.416Z,67.17
2022-08-29T12:16:44.494Z,65.72
2022-08-29T12:18:01.321Z,66.14
2022-08-29T12:18:44.351Z,65.56
2022-08-29T12:19:44.361Z,66.53
2022-08-29T12:20:44.371Z,63.63
2022-08-29T12:21:44.348Z,65.66
2022-08-29T12:23:44.324Z,65.50
2022-08-29T12:24:44.332Z,64.66
2022-08-29T12:25:44.331Z,64.95
2022-08-29T12:26:44.325Z,62.43
2022-08-29T12:27:44.360Z,64.66
2022-08-29T12:28:44.330Z,62.53
2022-08-29T12:29:44.950Z,61.43
2022-08-29T12:30:44.341Z,61.82
2022-08-29T12:31:56.423Z,64.21
2022-08-29T12:32:44.377Z,65.85
2022-08-29T12:33:44.322Z,67.72
2022-08-29T12:34:44.316Z,64.82
2022-08-29T12:35:44.304Z,65.37
2022-08-29T12:36:52.239Z,64.34
2022-08-29T12:37:44.326Z,62.95
2022-08-29T12:38:44.297Z,63.05
2022-08-29T12:39:44.297Z,63.40
2022-08-29T12:40:44.434Z,65.82
2022-08-29T12:41:44.427Z,64.01
2022-08-29T12:42:44.317Z,64.69
2022-08-29T12:43:44.279Z,67.01
2022-08-29T12:44:44.313Z,62.66
2022-08-29T12:45:44.293Z,64.31
2022-08-29T12:46:44.363Z,64.79
2022-08-29T12:47:46.137Z,65.75
2022-08-29T12:48:44.278Z,66.24
2022-08-29T12:49:44.290Z,63.34
2022-08-29T12:50:44.276Z,65.40
2022-08-29T12:51:44.262Z,66.66
2022-08-29T12:52:44.323Z,64.50
2022-08-29T12:53:44.287Z,64.53
2022-08-29T12:54:45.919Z,66.53